TK981 LTFD-LTBR
Flight info
| Callsign | TK981 |
|---|---|
| Flight time | 0h 58m |
| Altitude | 13000 |
| Route | KONEN DCT SULTA |
| Aircraft | C408/M-SDFGRY/S |
Departure
| Time | 2026-04-23 04:58 |
|---|---|
| Airport | Balıkesir Koca Seyit Airport (LTFD) |
Arrival
| Time | 2026-04-23 05:57 |
|---|---|
| Airport | Bursa Yenişehir Airport (LTBR) |
| Time | Latitude | Longitude | Altitude | Speed | Heading |
|---|---|---|---|---|---|
| 2026-04-23 04:58 | 39.62386 | 27.14025 | 4407 ft | 136 kts | 53° |
| 2026-04-23 04:58 | 39.62939 | 27.15032 | 4733 ft | 139 kts | 53° |
| 2026-04-23 04:58 | 39.63504 | 27.16060 | 5028 ft | 140 kts | 53° |
| 2026-04-23 04:59 | 39.64071 | 27.17094 | 5316 ft | 141 kts | 53° |
| 2026-04-23 04:59 | 39.64647 | 27.18143 | 5616 ft | 142 kts | 51° |
| 2026-04-23 04:59 | 39.65225 | 27.19195 | 5881 ft | 146 kts | 51° |
| 2026-04-23 04:59 | 39.65818 | 27.20278 | 6226 ft | 145 kts | 51° |
| 2026-04-23 05:00 | 39.66407 | 27.21349 | 6520 ft | 149 kts | 50° |
| 2026-04-23 05:00 | 39.67101 | 27.22317 | 6775 ft | 148 kts | 28° |
| 2026-04-23 05:00 | 39.68094 | 27.22677 | 7008 ft | 149 kts | 6° |
| 2026-04-23 05:00 | 39.69147 | 27.22857 | 7244 ft | 155 kts | 8° |
| 2026-04-23 05:01 | 39.70211 | 27.23044 | 7568 ft | 154 kts | 8° |
| 2026-04-23 05:01 | 39.71281 | 27.23231 | 7883 ft | 156 kts | 7° |
| 2026-04-23 05:01 | 39.72344 | 27.23418 | 8219 ft | 157 kts | 6° |
| 2026-04-23 05:01 | 39.73441 | 27.23610 | 8490 ft | 160 kts | 5° |
| 2026-04-23 05:02 | 39.74553 | 27.23807 | 8748 ft | 162 kts | 5° |
| 2026-04-23 05:02 | 39.75680 | 27.24004 | 9002 ft | 164 kts | 5° |
| 2026-04-23 05:02 | 39.76818 | 27.24205 | 9248 ft | 166 kts | 4° |
| 2026-04-23 05:02 | 39.77956 | 27.24520 | 9465 ft | 171 kts | 19° |
| 2026-04-23 05:03 | 39.78947 | 27.25368 | 9709 ft | 175 kts | 36° |
| 2026-04-23 05:03 | 39.79897 | 27.26377 | 9942 ft | 177 kts | 35° |
| 2026-04-23 05:03 | 39.80797 | 27.27502 | 10172 ft | 183 kts | 52° |
| 2026-04-23 05:03 | 39.81307 | 27.29035 | 10422 ft | 187 kts | 76° |
| 2026-04-23 05:04 | 39.81486 | 27.30724 | 10607 ft | 189 kts | 80° |
| 2026-04-23 05:04 | 39.81664 | 27.32407 | 10772 ft | 191 kts | 80° |
| 2026-04-23 05:04 | 39.81845 | 27.34122 | 10943 ft | 192 kts | 80° |
| 2026-04-23 05:04 | 39.82027 | 27.35851 | 11115 ft | 193 kts | 80° |
| 2026-04-23 05:05 | 39.82209 | 27.37580 | 11277 ft | 194 kts | 80° |
| 2026-04-23 05:05 | 39.82392 | 27.39327 | 11444 ft | 195 kts | 81° |
| 2026-04-23 05:05 | 39.82576 | 27.41083 | 11599 ft | 196 kts | 80° |
| 2026-04-23 05:05 | 39.82761 | 27.42849 | 11763 ft | 197 kts | 80° |
| 2026-04-23 05:06 | 39.82945 | 27.44608 | 11967 ft | 199 kts | 80° |
| 2026-04-23 05:06 | 39.83134 | 27.46414 | 12205 ft | 199 kts | 80° |
| 2026-04-23 05:06 | 39.83316 | 27.48168 | 12470 ft | 197 kts | 80° |
| 2026-04-23 05:06 | 39.83503 | 27.49962 | 12641 ft | 202 kts | 81° |
| 2026-04-23 05:07 | 39.83692 | 27.51782 | 12860 ft | 203 kts | 81° |
| 2026-04-23 05:07 | 39.83882 | 27.53607 | 12974 ft | 210 kts | 81° |
| 2026-04-23 05:07 | 39.84080 | 27.55531 | 12987 ft | 218 kts | 81° |
| 2026-04-23 05:07 | 39.84285 | 27.57511 | 12990 ft | 221 kts | 81° |
| 2026-04-23 05:08 | 39.84490 | 27.59510 | 12979 ft | 224 kts | 81° |
| 2026-04-23 05:08 | 39.84695 | 27.61501 | 12983 ft | 225 kts | 81° |
| 2026-04-23 05:08 | 39.84891 | 27.63525 | 12982 ft | 226 kts | 82° |
| 2026-04-23 05:08 | 39.85082 | 27.65567 | 12983 ft | 227 kts | 82° |
| 2026-04-23 05:09 | 39.85274 | 27.67603 | 12984 ft | 226 kts | 82° |
| 2026-04-23 05:09 | 39.85465 | 27.69637 | 12978 ft | 226 kts | 82° |
| 2026-04-23 05:09 | 39.85657 | 27.71679 | 12976 ft | 226 kts | 82° |
| 2026-04-23 05:09 | 39.85846 | 27.73687 | 12978 ft | 227 kts | 82° |
| 2026-04-23 05:10 | 39.86037 | 27.75729 | 12980 ft | 227 kts | 82° |
| 2026-04-23 05:10 | 39.86228 | 27.77773 | 12979 ft | 227 kts | 82° |
| 2026-04-23 05:10 | 39.86420 | 27.79820 | 12982 ft | 227 kts | 82° |
| 2026-04-23 05:10 | 39.86619 | 27.81866 | 12980 ft | 227 kts | 79° |
| 2026-04-23 05:11 | 39.86918 | 27.83857 | 12981 ft | 226 kts | 76° |
| 2026-04-23 05:11 | 39.87194 | 27.85880 | 12979 ft | 227 kts | 80° |
| 2026-04-23 05:11 | 39.87396 | 27.87922 | 12980 ft | 227 kts | 82° |
| 2026-04-23 05:11 | 39.87586 | 27.89955 | 12979 ft | 227 kts | 81° |
| 2026-04-23 05:12 | 39.87789 | 27.91994 | 12977 ft | 226 kts | 81° |
| 2026-04-23 05:12 | 39.87991 | 27.93997 | 12976 ft | 226 kts | 81° |
| 2026-04-23 05:12 | 39.88195 | 27.96026 | 12978 ft | 226 kts | 81° |
| 2026-04-23 05:12 | 39.88398 | 27.98060 | 12979 ft | 226 kts | 81° |
| 2026-04-23 05:13 | 39.88600 | 28.00094 | 12979 ft | 226 kts | 81° |
| 2026-04-23 05:13 | 39.88635 | 28.00448 | 12977 ft | 226 kts | 81° |
| 2026-04-23 05:15 | 39.88708 | 28.01187 | 12977 ft | 226 kts | 81° |
| 2026-04-23 05:15 | 39.88910 | 28.03218 | 12983 ft | 225 kts | 82° |
| 2026-04-23 05:16 | 39.89110 | 28.05234 | 12983 ft | 223 kts | 82° |
| 2026-04-23 05:16 | 39.89308 | 28.07234 | 12969 ft | 222 kts | 82° |
| 2026-04-23 05:16 | 39.89333 | 28.07485 | 12966 ft | 223 kts | 82° |
| 2026-04-23 05:18 | 39.89501 | 28.09187 | 12962 ft | 224 kts | 82° |
| 2026-04-23 05:18 | 39.89698 | 28.11187 | 12967 ft | 225 kts | 82° |
| 2026-04-23 05:18 | 39.89898 | 28.13217 | 12965 ft | 226 kts | 82° |
| 2026-04-23 05:18 | 39.90097 | 28.15254 | 12965 ft | 226 kts | 82° |
| 2026-04-23 05:19 | 39.90296 | 28.17279 | 12967 ft | 227 kts | 82° |
| 2026-04-23 05:19 | 39.90495 | 28.19319 | 12967 ft | 227 kts | 82° |
| 2026-04-23 05:19 | 39.90696 | 28.21365 | 12968 ft | 228 kts | 82° |
| 2026-04-23 05:19 | 39.90896 | 28.23422 | 12972 ft | 228 kts | 82° |
| 2026-04-23 05:20 | 39.91096 | 28.25474 | 12975 ft | 228 kts | 82° |
| 2026-04-23 05:20 | 39.91292 | 28.27494 | 12973 ft | 227 kts | 82° |
| 2026-04-23 05:20 | 39.91490 | 28.29536 | 12971 ft | 227 kts | 82° |
| 2026-04-23 05:20 | 39.91687 | 28.31577 | 12970 ft | 227 kts | 82° |
| 2026-04-23 05:21 | 39.91885 | 28.33624 | 12971 ft | 227 kts | 82° |
| 2026-04-23 05:21 | 39.92081 | 28.35657 | 12970 ft | 227 kts | 82° |
| 2026-04-23 05:21 | 39.92278 | 28.37698 | 12961 ft | 227 kts | 83° |
| 2026-04-23 05:21 | 39.92475 | 28.39757 | 12963 ft | 230 kts | 83° |
| 2026-04-23 05:22 | 39.92674 | 28.41829 | 12964 ft | 231 kts | 82° |
| 2026-04-23 05:22 | 39.92873 | 28.43916 | 12964 ft | 232 kts | 82° |
| 2026-04-23 05:22 | 39.92920 | 28.44395 | 12965 ft | 232 kts | 82° |
| 2026-04-23 05:23 | 39.93101 | 28.46300 | 12976 ft | 233 kts | 83° |
| 2026-04-23 05:23 | 39.93301 | 28.48397 | 12974 ft | 233 kts | 83° |
| 2026-04-23 05:23 | 39.93500 | 28.50488 | 12973 ft | 233 kts | 83° |
| 2026-04-23 05:23 | 39.93698 | 28.52583 | 12971 ft | 232 kts | 82° |
| 2026-04-23 05:24 | 39.93897 | 28.54672 | 12969 ft | 232 kts | 83° |
| 2026-04-23 05:24 | 39.94094 | 28.56760 | 12981 ft | 231 kts | 83° |
| 2026-04-23 05:24 | 39.94289 | 28.58833 | 12978 ft | 229 kts | 83° |
| 2026-04-23 05:24 | 39.94482 | 28.60877 | 12977 ft | 226 kts | 82° |
| 2026-04-23 05:25 | 39.94673 | 28.62915 | 12977 ft | 226 kts | 83° |
| 2026-04-23 05:25 | 39.94863 | 28.64927 | 12975 ft | 226 kts | 83° |
| 2026-04-23 05:25 | 39.95053 | 28.66963 | 12969 ft | 227 kts | 83° |
| 2026-04-23 05:25 | 39.95245 | 28.69021 | 12964 ft | 229 kts | 83° |
| 2026-04-23 05:26 | 39.95438 | 28.71096 | 12960 ft | 231 kts | 83° |
| 2026-04-23 05:26 | 39.95633 | 28.73175 | 12965 ft | 231 kts | 83° |
| 2026-04-23 05:26 | 39.95825 | 28.75255 | 12967 ft | 232 kts | 83° |
| 2026-04-23 05:26 | 39.96018 | 28.77344 | 12969 ft | 232 kts | 83° |
| 2026-04-23 05:27 | 39.96210 | 28.79415 | 12965 ft | 232 kts | 83° |
| 2026-04-23 05:27 | 39.96403 | 28.81503 | 12963 ft | 231 kts | 83° |
| 2026-04-23 05:27 | 39.96596 | 28.83590 | 12964 ft | 231 kts | 83° |
| 2026-04-23 05:27 | 39.96787 | 28.85673 | 12965 ft | 231 kts | 83° |
| 2026-04-23 05:28 | 39.96977 | 28.87737 | 12967 ft | 232 kts | 83° |
| 2026-04-23 05:28 | 39.97168 | 28.89824 | 12968 ft | 232 kts | 83° |
| 2026-04-23 05:28 | 39.97360 | 28.91926 | 12964 ft | 232 kts | 83° |
| 2026-04-23 05:28 | 39.97551 | 28.94015 | 12965 ft | 232 kts | 84° |
| 2026-04-23 05:29 | 39.97594 | 28.94488 | 12967 ft | 232 kts | 83° |
| 2026-04-23 05:29 | 39.97603 | 28.94589 | 12967 ft | 232 kts | 83° |
| 2026-04-23 05:29 | 39.97793 | 28.96679 | 12958 ft | 232 kts | 84° |
| 2026-04-23 05:29 | 39.97986 | 28.98783 | 12958 ft | 235 kts | 84° |
| 2026-04-23 05:30 | 39.98017 | 28.99129 | 12956 ft | 235 kts | 84° |
| 2026-04-23 05:31 | 39.98093 | 28.99981 | 12959 ft | 235 kts | 84° |
| 2026-04-23 05:31 | 39.98284 | 29.02100 | 12966 ft | 236 kts | 84° |
| 2026-04-23 05:32 | 39.98479 | 29.04247 | 12976 ft | 238 kts | 84° |
| 2026-04-23 05:32 | 39.98673 | 29.06407 | 12974 ft | 240 kts | 84° |
| 2026-04-23 05:32 | 39.98858 | 29.08466 | 12974 ft | 238 kts | 84° |
| 2026-04-23 05:35 | 39.98909 | 29.09039 | 12975 ft | 238 kts | 84° |
| 2026-04-23 05:35 | 39.99102 | 29.11190 | 12970 ft | 236 kts | 83° |
| 2026-04-23 05:35 | 39.99291 | 29.13294 | 12967 ft | 232 kts | 83° |
| 2026-04-23 05:35 | 39.99475 | 29.15351 | 12963 ft | 230 kts | 83° |
| 2026-04-23 05:36 | 39.99660 | 29.17422 | 12957 ft | 229 kts | 83° |
| 2026-04-23 05:36 | 39.99844 | 29.19485 | 12956 ft | 229 kts | 83° |
| 2026-04-23 05:36 | 40.00026 | 29.21541 | 12956 ft | 228 kts | 83° |
| 2026-04-23 05:36 | 40.00208 | 29.23597 | 12958 ft | 228 kts | 83° |
| 2026-04-23 05:37 | 40.00391 | 29.25660 | 12957 ft | 230 kts | 83° |
| 2026-04-23 05:37 | 40.00575 | 29.27751 | 12961 ft | 233 kts | 83° |
| 2026-04-23 05:37 | 40.00762 | 29.29864 | 12964 ft | 236 kts | 83° |
| 2026-04-23 05:37 | 40.00950 | 29.32002 | 12942 ft | 236 kts | 84° |
| 2026-04-23 05:38 | 40.01134 | 29.34104 | 12922 ft | 236 kts | 84° |
| 2026-04-23 05:38 | 40.01319 | 29.36229 | 12959 ft | 235 kts | 84° |
| 2026-04-23 05:38 | 40.01506 | 29.38357 | 12994 ft | 235 kts | 83° |
| 2026-04-23 05:38 | 40.01691 | 29.40479 | 13017 ft | 235 kts | 84° |
| 2026-04-23 05:39 | 40.01876 | 29.42604 | 13025 ft | 235 kts | 84° |
| 2026-04-23 05:39 | 40.02060 | 29.44705 | 13070 ft | 235 kts | 84° |
| 2026-04-23 05:39 | 40.02242 | 29.46828 | 13111 ft | 235 kts | 84° |
| 2026-04-23 05:39 | 40.02425 | 29.48951 | 13140 ft | 236 kts | 83° |
| 2026-04-23 05:40 | 40.02611 | 29.51102 | 13106 ft | 240 kts | 84° |
| 2026-04-23 05:40 | 40.02796 | 29.53268 | 13103 ft | 239 kts | 84° |
| 2026-04-23 05:40 | 40.02980 | 29.55408 | 12925 ft | 241 kts | 84° |
| 2026-04-23 05:40 | 40.03166 | 29.57577 | 12772 ft | 239 kts | 84° |
| 2026-04-23 05:41 | 40.03350 | 29.59726 | 12704 ft | 236 kts | 84° |
| 2026-04-23 05:41 | 40.03522 | 29.61747 | 12627 ft | 213 kts | 84° |
| 2026-04-23 05:41 | 40.03687 | 29.63684 | 12016 ft | 219 kts | 84° |
| 2026-04-23 05:41 | 40.03851 | 29.65643 | 10971 ft | 219 kts | 82° |
| 2026-04-23 05:42 | 40.04018 | 29.67596 | 10851 ft | 210 kts | 82° |
| 2026-04-23 05:42 | 40.04172 | 29.69427 | 10830 ft | 195 kts | 82° |
| 2026-04-23 05:42 | 40.04323 | 29.71188 | 10589 ft | 195 kts | 81° |
| 2026-04-23 05:42 | 40.04468 | 29.72923 | 10431 ft | 193 kts | 81° |
| 2026-04-23 05:43 | 40.04871 | 29.74541 | 10201 ft | 186 kts | 58° |
| 2026-04-23 05:43 | 40.05539 | 29.75965 | 9957 ft | 182 kts | 38° |
| 2026-04-23 05:43 | 40.06669 | 29.76548 | 9753 ft | 172 kts | 7° |
| 2026-04-23 05:43 | 40.07765 | 29.77166 | 9509 ft | 177 kts | 34° |
| 2026-04-23 05:44 | 40.08522 | 29.78431 | 9308 ft | 179 kts | 59° |
| 2026-04-23 05:44 | 40.09222 | 29.79775 | 9088 ft | 177 kts | 50° |
| 2026-04-23 05:44 | 40.10014 | 29.81002 | 8886 ft | 175 kts | 44° |
| 2026-04-23 05:44 | 40.10862 | 29.82130 | 8711 ft | 173 kts | 40° |
| 2026-04-23 05:45 | 40.11753 | 29.83169 | 8541 ft | 174 kts | 37° |
| 2026-04-23 05:45 | 40.12738 | 29.84178 | 8079 ft | 183 kts | 33° |
| 2026-04-23 05:45 | 40.13760 | 29.85103 | 7788 ft | 179 kts | 30° |
| 2026-04-23 05:45 | 40.14829 | 29.85957 | 7484 ft | 177 kts | 27° |
| 2026-04-23 05:46 | 40.15898 | 29.86709 | 7190 ft | 175 kts | 25° |
| 2026-04-23 05:46 | 40.16998 | 29.87384 | 6832 ft | 174 kts | 23° |
| 2026-04-23 05:46 | 40.18105 | 29.87975 | 6465 ft | 174 kts | 20° |
| 2026-04-23 05:46 | 40.19246 | 29.88494 | 6043 ft | 173 kts | 18° |
| 2026-04-23 05:47 | 40.20403 | 29.88933 | 5618 ft | 173 kts | 15° |
| 2026-04-23 05:47 | 40.21573 | 29.89292 | 5202 ft | 173 kts | 12° |
| 2026-04-23 05:47 | 40.22760 | 29.89573 | 4779 ft | 173 kts | 9° |
| 2026-04-23 05:47 | 40.23934 | 29.89825 | 4368 ft | 173 kts | 9° |
| 2026-04-23 05:48 | 40.25064 | 29.90058 | 4113 ft | 143 kts | 5° |
| 2026-04-23 05:48 | 40.25978 | 29.89758 | 4093 ft | 136 kts | 338° |
| 2026-04-23 05:48 | 40.26878 | 29.89191 | 4120 ft | 151 kts | 322° |
| 2026-04-23 05:48 | 40.27664 | 29.88248 | 4139 ft | 159 kts | 318° |
| 2026-04-23 05:49 | 40.28487 | 29.87248 | 4140 ft | 163 kts | 318° |
| 2026-04-23 05:49 | 40.29341 | 29.86207 | 3973 ft | 171 kts | 318° |
| 2026-04-23 05:49 | 40.30225 | 29.85133 | 3786 ft | 174 kts | 318° |
| 2026-04-23 05:49 | 40.31114 | 29.84043 | 3588 ft | 174 kts | 313° |
| 2026-04-23 05:50 | 40.31539 | 29.82642 | 3354 ft | 152 kts | 269° |
| 2026-04-23 05:50 | 40.31122 | 29.81426 | 3105 ft | 147 kts | 232° |
| 2026-04-23 05:50 | 40.30729 | 29.80224 | 2998 ft | 138 kts | 252° |
| 2026-04-23 05:50 | 40.30428 | 29.79034 | 2986 ft | 139 kts | 253° |
| 2026-04-23 05:51 | 40.30143 | 29.77779 | 2988 ft | 151 kts | 253° |
| 2026-04-23 05:51 | 40.29859 | 29.76421 | 2984 ft | 156 kts | 255° |
| 2026-04-23 05:51 | 40.29568 | 29.75045 | 2986 ft | 157 kts | 255° |
| 2026-04-23 05:51 | 40.29273 | 29.73654 | 2982 ft | 159 kts | 255° |
| 2026-04-23 05:52 | 40.29158 | 29.73111 | 2985 ft | 158 kts | 255° |
| 2026-04-23 05:53 | 40.28895 | 29.71868 | 2980 ft | 159 kts | 255° |
| 2026-04-23 05:53 | 40.28596 | 29.70461 | 2831 ft | 164 kts | 254° |
| 2026-04-23 05:53 | 40.28311 | 29.69118 | 2577 ft | 135 kts | 254° |
| 2026-04-23 05:54 | 40.28070 | 29.67981 | 2390 ft | 124 kts | 255° |
| 2026-04-23 05:54 | 40.27853 | 29.66960 | 2227 ft | 110 kts | 254° |
| 2026-04-23 05:54 | 40.27658 | 29.66043 | 2095 ft | 104 kts | 254° |
| 2026-04-23 05:54 | 40.27462 | 29.65127 | 1950 ft | 105 kts | 254° |
| 2026-04-23 05:55 | 40.27263 | 29.64182 | 1805 ft | 109 kts | 255° |
| 2026-04-23 05:55 | 40.27059 | 29.63212 | 1645 ft | 111 kts | 254° |
| 2026-04-23 05:55 | 40.26849 | 29.62226 | 1478 ft | 113 kts | 253° |
| 2026-04-23 05:55 | 40.26637 | 29.61229 | 1322 ft | 113 kts | 253° |
| 2026-04-23 05:56 | 40.26427 | 29.60239 | 1166 ft | 111 kts | 253° |
| 2026-04-23 05:56 | 40.26224 | 29.59292 | 1007 ft | 108 kts | 253° |
| 2026-04-23 05:56 | 40.26024 | 29.58375 | 891 ft | 103 kts | 254° |
| 2026-04-23 05:56 | 40.25844 | 29.57483 | 784 ft | 98 kts | 252° |
| 2026-04-23 05:57 | 40.25668 | 29.56683 | 767 ft | 69 kts | 253° |
| 2026-04-23 05:57 | 40.25578 | 29.56254 | 767 ft | 46 kts | 253° |
| 2026-04-23 05:57 | 40.25489 | 29.55852 | 767 ft | 45 kts | 258° |
| 2026-04-23 05:57 | 40.25414 | 29.55463 | 767 ft | 44 kts | 255° |
| 2026-04-23 05:58 | 40.25330 | 29.55085 | 767 ft | 43 kts | 252° |
| 2026-04-23 05:58 | 40.25259 | 29.54736 | 767 ft | 30 kts | 255° |
| 2026-04-23 05:58 | 40.25247 | 29.54565 | 767 ft | 14 kts | 295° |
| 2026-04-23 05:58 | 40.25332 | 29.54513 | 767 ft | 15 kts | 347° |
| 2026-04-23 05:59 | 40.25436 | 29.54478 | 767 ft | 16 kts | 343° |
| 2026-04-23 05:59 | 40.31174 | 29.81514 | 3124 ft | 1 kts | 232° |